createdAt,value
2023-04-16T00:00:31.580Z,101871.56
2023-04-16T00:03:17.058Z,101874.19
2023-04-16T00:06:02.856Z,101866.44
2023-04-16T00:08:48.426Z,101863.81
2023-04-16T00:11:33.744Z,101865.56
2023-04-16T00:14:19.165Z,101868.16
2023-04-16T00:17:05.047Z,101873.41
2023-04-16T00:19:50.779Z,101876.84
2023-04-16T00:22:36.157Z,101877.69
2023-04-16T00:25:21.746Z,101877.75
2023-04-16T00:28:08.032Z,101870.88
2023-04-16T00:30:55.502Z,101873.50
2023-04-16T00:33:40.786Z,101878.75
2023-04-16T00:36:27.486Z,101882.25
2023-04-16T00:39:12.880Z,101878.81
2023-04-16T00:41:58.104Z,101880.59
2023-04-16T00:44:43.492Z,101876.25
2023-04-16T00:47:29.198Z,101875.38
2023-04-16T00:50:15.023Z,101877.16
2023-04-16T00:53:01.876Z,101875.41
2023-04-16T00:55:47.133Z,101866.75
2023-04-16T00:58:34.274Z,101870.25
2023-04-16T01:01:19.869Z,101864.19
2023-04-16T01:04:07.344Z,101864.19
2023-04-16T01:06:52.842Z,101863.28
2023-04-16T01:09:38.114Z,101861.59
2023-04-16T01:12:23.991Z,101859.84
2023-04-16T01:15:11.464Z,101861.59
2023-04-16T01:17:56.935Z,101858.09
2023-04-16T01:20:42.987Z,101861.53
2023-04-16T01:23:28.879Z,101858.00
2023-04-16T01:26:14.293Z,101857.19
2023-04-16T01:29:01.309Z,101858.00
2023-04-16T01:31:46.971Z,101862.31
2023-04-16T01:34:44.361Z,101857.16
2023-04-16T01:37:30.723Z,101867.50
2023-04-16T01:40:16.380Z,101862.31
2023-04-16T01:43:02.504Z,101861.41
2023-04-16T01:45:48.204Z,101865.75
2023-04-16T01:48:33.734Z,101860.53
2023-04-16T01:51:19.747Z,101861.41
2023-04-16T01:54:05.573Z,101862.34
2023-04-16T01:56:51.059Z,101859.75
2023-04-16T01:59:36.507Z,101864.13
2023-04-16T02:02:25.705Z,101867.59
2023-04-16T02:05:13.261Z,101859.81
2023-04-16T02:07:58.638Z,101865.06
2023-04-16T02:10:47.279Z,101866.81
2023-04-16T02:13:32.738Z,101866.03
2023-04-16T02:16:18.218Z,101872.97
2023-04-16T02:19:12.045Z,101870.41
2023-04-16T02:21:58.822Z,101874.75
2023-04-16T02:24:44.102Z,101875.72
2023-04-16T02:27:30.164Z,101866.19
2023-04-16T02:30:27.346Z,101869.69
2023-04-16T02:33:13.422Z,101871.47
2023-04-16T02:36:08.063Z,101871.47
2023-04-16T02:38:53.862Z,101875.00
2023-04-16T02:41:39.307Z,101874.97
2023-04-16T02:44:24.696Z,101868.09
2023-04-16T02:47:10.185Z,101881.16
2023-04-16T02:49:55.607Z,101880.34
2023-04-16T02:52:40.887Z,101877.78
2023-04-16T02:55:26.352Z,101876.91
2023-04-16T02:58:11.927Z,101877.84
2023-04-16T03:00:57.338Z,101875.28
2023-04-16T03:03:42.976Z,101876.19
2023-04-16T03:06:28.713Z,101873.63
2023-04-16T03:09:15.133Z,101875.31
2023-04-16T03:12:01.863Z,101873.59
2023-04-16T03:14:47.210Z,101877.13
2023-04-16T03:17:32.759Z,101871.88
2023-04-16T03:20:19.238Z,101871.88
2023-04-16T03:23:04.859Z,101870.97
2023-04-16T03:25:50.397Z,101876.19
2023-04-16T03:28:36.901Z,101877.91
2023-04-16T03:31:24.610Z,101877.09
2023-04-16T03:34:11.420Z,101878.00
2023-04-16T03:36:58.926Z,101879.75
2023-04-16T03:39:44.794Z,101879.81
2023-04-16T03:42:31.318Z,101879.84
2023-04-16T03:45:17.006Z,101880.75
2023-04-16T03:48:04.051Z,101884.25
2023-04-16T03:50:49.579Z,101878.22
2023-04-16T03:53:37.792Z,101887.78
2023-04-16T03:56:23.746Z,101887.78
2023-04-16T03:59:11.169Z,101887.84
2023-04-16T04:01:56.929Z,101880.94
2023-04-16T04:04:42.855Z,101880.97
2023-04-16T04:07:29.598Z,101877.53
2023-04-16T04:10:16.901Z,101869.72
2023-04-16T04:13:04.527Z,101868.81
2023-04-16T04:15:51.380Z,101865.28
2023-04-16T04:18:37.072Z,101861.75
2023-04-16T04:21:24.224Z,101864.34
2023-04-16T04:24:09.878Z,101869.47
2023-04-16T04:26:55.351Z,101866.84
2023-04-16T04:29:40.876Z,101873.81
2023-04-16T04:32:26.148Z,101869.44
2023-04-16T04:35:11.986Z,101870.34
2023-04-16T04:37:57.213Z,101872.13
2023-04-16T04:40:42.603Z,101871.25
2023-04-16T04:43:28.020Z,101873.84
2023-04-16T04:46:13.329Z,101871.25
2023-04-16T04:48:59.557Z,101878.16
2023-04-16T04:51:45.472Z,101874.72
2023-04-16T04:54:31.787Z,101886.88
2023-04-16T04:57:17.494Z,101881.69
2023-04-16T05:00:04.480Z,101887.84
2023-04-16T05:02:58.384Z,101889.59
2023-04-16T05:05:43.783Z,101886.19
2023-04-16T05:08:29.235Z,101894.91
2023-04-16T05:11:14.405Z,101895.84
2023-04-16T05:14:00.289Z,101898.47
2023-04-16T05:16:45.705Z,101900.25
2023-04-16T05:19:30.927Z,101904.59
2023-04-16T05:22:19.032Z,101909.78
2023-04-16T05:25:04.601Z,101915.97
2023-04-16T05:27:49.903Z,101909.00
2023-04-16T05:30:35.258Z,101911.63
2023-04-16T05:33:21.023Z,101915.13
2023-04-16T05:36:06.576Z,101915.19
2023-04-16T05:38:51.999Z,101909.13
2023-04-16T05:41:37.425Z,101908.25
2023-04-16T05:44:22.893Z,101908.25
2023-04-16T05:47:09.564Z,101916.94
2023-04-16T05:49:55.024Z,101923.91
2023-04-16T05:52:40.362Z,101914.38
2023-04-16T05:55:26.096Z,101924.84
2023-04-16T05:58:11.716Z,101926.59
2023-04-16T06:00:57.078Z,101937.97
2023-04-16T06:03:42.586Z,101929.28
2023-04-16T06:06:28.285Z,101937.22
2023-04-16T06:09:13.865Z,101939.06
2023-04-16T06:11:59.949Z,101938.25
2023-04-16T06:14:45.393Z,101941.81
2023-04-16T06:17:30.792Z,101943.66
2023-04-16T06:20:16.108Z,101954.16
2023-04-16T06:23:01.423Z,101955.03
2023-04-16T06:25:46.749Z,101949.00
2023-04-16T06:28:32.192Z,101950.81
2023-04-16T06:31:17.730Z,101956.94
2023-04-16T06:34:03.005Z,101955.25
2023-04-16T06:36:48.498Z,101958.81
2023-04-16T06:39:33.649Z,101967.56
2023-04-16T06:42:18.961Z,101967.63
2023-04-16T06:45:04.820Z,101971.19
2023-04-16T06:47:51.253Z,101976.47
2023-04-16T06:50:36.589Z,101971.38
2023-04-16T06:53:22.119Z,101976.66
2023-04-16T06:56:08.279Z,101973.31
2023-04-16T06:58:53.790Z,101981.25
2023-04-16T07:01:39.106Z,101984.84
2023-04-16T07:04:24.518Z,101982.31
2023-04-16T07:07:09.903Z,101991.94
2023-04-16T07:09:55.126Z,101986.81
2023-04-16T07:12:40.848Z,101989.53
2023-04-16T07:15:26.773Z,101995.75
2023-04-16T07:18:12.262Z,102001.94
2023-04-16T07:20:57.774Z,102000.31
2023-04-16T07:23:43.250Z,102003.00
2023-04-16T07:26:29.016Z,102007.44
2023-04-16T07:29:14.279Z,102006.78
2023-04-16T07:31:59.696Z,102013.06
2023-04-16T07:34:46.822Z,102017.59
2023-04-16T07:37:32.354Z,102020.41
2023-04-16T07:40:17.913Z,102011.88
2023-04-16T07:43:03.371Z,102020.78
2023-04-16T07:45:49.051Z,102018.31
2023-04-16T07:48:34.492Z,102016.78
2023-04-16T07:51:19.830Z,102020.50
2023-04-16T07:54:05.202Z,102023.25
2023-04-16T07:56:50.488Z,102029.56
2023-04-16T07:59:35.991Z,102024.50
2023-04-16T08:02:21.766Z,102029.78
2023-04-16T08:05:08.069Z,102027.22
2023-04-16T08:07:53.765Z,102023.00
2023-04-16T08:10:39.676Z,102026.66
2023-04-16T08:13:25.125Z,102025.06
2023-04-16T08:16:10.570Z,102028.56
2023-04-16T08:18:55.924Z,102020.78
2023-04-16T08:21:41.450Z,102017.44
2023-04-16T08:24:26.931Z,102015.75
2023-04-16T08:27:19.317Z,102015.88
2023-04-16T08:30:06.410Z,102014.28
2023-04-16T08:32:52.141Z,102014.31
2023-04-16T08:35:37.372Z,102019.59
2023-04-16T08:38:22.872Z,102017.06
2023-04-16T08:41:12.227Z,102016.28
2023-04-16T08:44:00.487Z,102020.69
2023-04-16T08:46:49.880Z,102013.72
2023-04-16T08:49:42.325Z,102020.75
2023-04-16T08:52:31.430Z,102020.78
2023-04-16T08:55:19.948Z,102019.97
2023-04-16T08:58:13.969Z,102025.28
2023-04-16T09:00:59.774Z,102034.16
2023-04-16T09:03:48.514Z,102034.28
2023-04-16T09:06:35.227Z,102031.75
2023-04-16T09:09:22.388Z,102023.91
2023-04-16T09:12:08.995Z,102020.47
2023-04-16T09:14:57.043Z,102011.75
2023-04-16T09:17:42.621Z,102021.41
2023-04-16T09:20:27.870Z,102007.38
2023-04-16T09:23:13.418Z,101996.88
2023-04-16T09:25:59.737Z,101989.88
2023-04-16T09:28:50.955Z,101994.25
2023-04-16T09:31:36.925Z,102000.44
2023-04-16T09:34:22.502Z,102010.06
2023-04-16T09:37:17.857Z,102006.59
2023-04-16T09:40:04.714Z,102005.72
2023-04-16T09:42:50.560Z,102009.19
2023-04-16T09:45:51.537Z,102010.97
2023-04-16T09:48:37.147Z,102020.59
2023-04-16T09:51:22.582Z,102019.72
2023-04-16T09:54:08.524Z,102018.84
2023-04-16T09:56:57.085Z,102023.25
2023-04-16T09:59:42.374Z,102028.50
2023-04-16T10:02:28.964Z,102029.34
2023-04-16T10:05:16.950Z,102032.88
2023-04-16T10:08:02.802Z,102022.34
2023-04-16T10:10:48.468Z,102039.00
2023-04-16T10:13:33.916Z,102037.22
2023-04-16T10:16:19.564Z,102035.47
2023-04-16T10:19:04.914Z,102045.97
2023-04-16T10:21:50.379Z,102038.06
2023-04-16T10:24:36.015Z,102040.66
2023-04-16T10:27:21.583Z,102045.06
2023-04-16T10:30:09.174Z,102045.94
2023-04-16T10:32:56.326Z,102042.44
2023-04-16T10:35:52.402Z,102038.03
2023-04-16T10:38:49.639Z,102038.03
2023-04-16T10:41:35.069Z,102034.53
2023-04-16T10:44:20.436Z,102024.91
2023-04-16T10:47:14.013Z,102020.47
2023-04-16T10:49:59.755Z,102020.44
2023-04-16T10:52:45.839Z,102038.88
2023-04-16T10:55:31.418Z,102039.75
2023-04-16T10:58:30.358Z,102041.50
2023-04-16T11:01:16.610Z,102030.94
2023-04-16T11:04:22.364Z,102024.78
2023-04-16T11:07:21.078Z,102015.94
2023-04-16T11:10:07.530Z,102028.16
2023-04-16T11:12:54.884Z,102019.28
2023-04-16T11:15:40.659Z,102006.03
2023-04-16T11:18:26.524Z,102007.66
2023-04-16T11:21:12.848Z,102008.44
2023-04-16T11:23:58.283Z,102010.00
2023-04-16T11:26:43.703Z,102007.00
2023-04-16T11:29:29.164Z,101991.81
2023-04-16T11:32:22.539Z,102003.72
2023-04-16T11:35:16.726Z,102006.97
2023-04-16T11:38:02.380Z,102005.03
2023-04-16T11:40:50.032Z,102002.38
2023-04-16T11:43:35.789Z,101989.31
2023-04-16T11:46:27.430Z,101984.34
2023-04-16T11:49:13.974Z,101989.78
2023-04-16T11:52:00.049Z,101994.91
2023-04-16T11:54:50.767Z,101987.72
2023-04-16T11:57:36.434Z,101993.81
2023-04-16T12:00:24.352Z,101992.63
2023-04-16T12:03:10.504Z,101973.03
2023-04-16T12:06:07.958Z,101975.53
2023-04-16T12:08:53.494Z,101976.38
2023-04-16T12:11:42.731Z,101973.94
2023-04-16T12:14:28.869Z,101979.13
2023-04-16T12:17:21.236Z,101980.53
2023-04-16T12:20:12.445Z,101973.09
2023-04-16T12:23:01.477Z,101974.41
2023-04-16T12:25:49.998Z,101971.47
2023-04-16T12:28:38.623Z,101976.84
2023-04-16T12:31:39.709Z,101971.28
2023-04-16T12:34:29.096Z,101974.44
2023-04-16T12:37:30.707Z,101979.34
2023-04-16T12:40:16.425Z,101972.81
2023-04-16T12:43:02.181Z,101972.81
2023-04-16T12:45:47.588Z,101977.56
2023-04-16T12:48:33.873Z,101978.13
2023-04-16T12:51:19.399Z,101975.19
2023-04-16T12:54:07.488Z,101978.03
2023-04-16T12:56:52.930Z,101976.59
2023-04-16T12:59:38.306Z,101973.28
2023-04-16T13:02:25.018Z,101963.03
2023-04-16T13:05:10.602Z,101971.94
2023-04-16T13:07:56.160Z,101983.34
2023-04-16T13:10:41.841Z,101972.47
2023-04-16T13:13:27.041Z,101977.69
2023-04-16T13:16:12.747Z,101979.44
2023-04-16T13:18:58.288Z,101969.91
2023-04-16T13:21:43.796Z,101977.69
2023-04-16T13:24:30.660Z,101974.59
2023-04-16T13:27:16.951Z,101974.34
2023-04-16T13:30:02.298Z,101987.78
2023-04-16T13:32:47.641Z,101983.22
2023-04-16T13:35:33.366Z,101980.63
2023-04-16T13:38:18.730Z,101987.72
2023-04-16T13:41:05.850Z,101986.00
2023-04-16T13:44:00.190Z,101980.53
2023-04-16T13:46:52.254Z,101984.13
2023-04-16T13:50:04.039Z,101981.34
2023-04-16T13:53:03.086Z,101982.94
2023-04-16T13:56:05.796Z,101984.75
2023-04-16T14:00:03.466Z,101984.78
2023-04-16T14:14:06.096Z,101988.81
2023-04-16T14:16:51.687Z,101994.16
2023-04-16T14:19:37.214Z,101990.69
2023-04-16T14:22:22.847Z,101987.81
2023-04-16T14:25:08.495Z,101986.13
2023-04-16T14:27:54.046Z,101984.31
2023-04-16T14:30:39.464Z,101986.53
2023-04-16T14:33:24.669Z,101980.94
2023-04-16T14:36:10.204Z,101974.06
2023-04-16T14:38:55.559Z,101976.88
2023-04-16T14:41:44.097Z,101978.84
2023-04-16T14:44:29.788Z,101979.81
2023-04-16T14:47:15.193Z,101978.66
2023-04-16T14:50:03.766Z,101983.94
2023-04-16T14:52:50.431Z,101976.69
2023-04-16T14:55:35.795Z,101978.72
2023-04-16T14:58:21.977Z,101977.22
2023-04-16T15:01:07.701Z,101976.81
2023-04-16T15:03:55.999Z,101975.53
2023-04-16T15:06:41.972Z,101971.38
2023-04-16T15:09:27.703Z,101964.44
2023-04-16T15:12:13.472Z,101970.31
2023-04-16T15:14:59.978Z,101968.31
2023-04-16T15:17:45.408Z,101961.84
2023-04-16T15:20:31.244Z,101966.75
2023-04-16T15:23:16.688Z,101965.50
2023-04-16T15:26:02.030Z,101971.47
2023-04-16T15:28:47.395Z,101967.44
2023-04-16T15:31:32.747Z,101964.44
2023-04-16T15:34:18.440Z,101967.97
2023-04-16T15:37:04.004Z,101964.19
2023-04-16T15:39:49.944Z,101965.56
2023-04-16T15:42:35.701Z,101960.56
2023-04-16T15:45:21.388Z,101965.97
2023-04-16T15:48:07.192Z,101962.84
2023-04-16T15:50:54.288Z,101968.78
2023-04-16T15:53:39.606Z,101962.50
2023-04-16T15:56:25.827Z,101965.91
2023-04-16T15:59:11.513Z,101954.31
2023-04-16T16:01:57.394Z,101954.31
2023-04-16T16:04:46.114Z,101957.75
2023-04-16T16:07:32.077Z,101956.84
2023-04-16T16:10:17.619Z,101955.47
2023-04-16T16:13:05.487Z,101951.56
2023-04-16T16:15:51.400Z,101951.44
2023-04-16T16:18:37.150Z,101950.91
2023-04-16T16:21:22.948Z,101953.06
2023-04-16T16:24:08.568Z,101949.44
2023-04-16T16:26:54.201Z,101958.59
2023-04-16T16:29:39.561Z,101954.94
2023-04-16T16:32:24.972Z,101953.09
2023-04-16T16:35:11.441Z,101953.50
2023-04-16T16:37:57.411Z,101945.06
2023-04-16T16:40:42.873Z,101950.69
2023-04-16T16:43:28.366Z,101945.69
2023-04-16T16:46:13.683Z,101950.31
2023-04-16T16:48:59.012Z,101940.59
2023-04-16T16:51:48.653Z,101947.59
2023-04-16T16:54:34.242Z,101938.84
2023-04-16T16:57:20.058Z,101939.66
2023-04-16T17:00:12.020Z,101946.63
2023-04-16T17:02:57.409Z,101936.84
2023-04-16T17:05:43.011Z,101937.94
2023-04-16T17:08:29.103Z,101938.09
2023-04-16T17:11:17.784Z,101944.25
2023-04-16T17:14:03.159Z,101936.66
2023-04-16T17:16:49.959Z,101932.44
2023-04-16T17:19:35.083Z,101935.25
2023-04-16T17:22:20.518Z,101935.25
2023-04-16T17:25:07.720Z,101931.66
2023-04-16T17:27:52.904Z,101932.41
2023-04-16T17:30:38.414Z,101930.50
2023-04-16T17:33:23.736Z,101938.31
2023-04-16T17:36:09.174Z,101937.34
2023-04-16T17:38:54.456Z,101930.56
2023-04-16T17:41:39.657Z,101935.03
2023-04-16T17:44:27.492Z,101935.97
2023-04-16T17:47:12.835Z,101941.25
2023-04-16T17:49:58.190Z,101936.13
2023-04-16T17:52:43.753Z,101943.31
2023-04-16T17:55:30.791Z,101934.59
2023-04-16T17:58:16.392Z,101942.50
2023-04-16T18:01:06.040Z,101941.69
2023-04-16T18:03:51.506Z,101939.03
2023-04-16T18:06:37.139Z,101931.28
2023-04-16T18:09:22.409Z,101938.44
2023-04-16T18:12:08.321Z,101943.88
2023-04-16T18:14:53.704Z,101935.25
2023-04-16T18:17:39.044Z,101940.59
2023-04-16T18:20:25.026Z,101945.03
2023-04-16T18:23:10.721Z,101947.72
2023-04-16T18:25:56.035Z,101950.38
2023-04-16T18:28:42.349Z,101957.41
2023-04-16T18:31:28.073Z,101964.47
2023-04-16T18:34:13.688Z,101961.84
2023-04-16T18:36:58.989Z,101964.53
2023-04-16T18:39:44.347Z,101967.16
2023-04-16T18:42:32.326Z,101977.66
2023-04-16T18:45:21.963Z,101977.63
2023-04-16T18:48:07.808Z,101989.88
2023-04-16T18:50:53.206Z,101995.13
2023-04-16T18:53:39.286Z,101995.94
2023-04-16T18:56:24.913Z,101996.78
2023-04-16T18:59:10.402Z,102001.97
2023-04-16T19:01:56.262Z,102013.28
2023-04-16T19:04:42.014Z,102013.22
2023-04-16T19:07:27.586Z,102022.81
2023-04-16T19:10:12.992Z,102028.91
2023-04-16T19:12:58.645Z,102027.09
2023-04-16T19:15:43.926Z,102032.22
2023-04-16T19:18:29.375Z,102028.66
2023-04-16T19:21:14.792Z,102042.53
2023-04-16T19:24:00.057Z,102046.84
2023-04-16T19:26:46.046Z,102050.25
2023-04-16T19:29:35.147Z,102051.88
2023-04-16T19:32:21.116Z,102049.16
2023-04-16T19:35:07.075Z,102053.41
2023-04-16T19:37:52.803Z,102066.44
2023-04-16T19:40:38.570Z,102072.41
2023-04-16T19:43:24.381Z,102075.69
2023-04-16T19:46:10.018Z,102080.81
2023-04-16T19:48:56.754Z,102081.44
2023-04-16T19:51:42.297Z,102076.09
2023-04-16T19:54:28.751Z,102090.75
2023-04-16T19:57:14.197Z,102087.13
2023-04-16T19:59:59.445Z,102086.16
2023-04-16T20:02:45.081Z,102092.97
2023-04-16T20:05:30.993Z,102099.78
2023-04-16T20:08:16.898Z,102102.25
2023-04-16T20:11:02.593Z,102101.19
2023-04-16T20:13:48.227Z,102105.38
2023-04-16T20:16:34.009Z,102113.00
2023-04-16T20:19:19.664Z,102113.66
2023-04-16T20:22:06.599Z,102120.47
2023-04-16T20:24:54.902Z,102119.41
2023-04-16T20:27:40.511Z,102116.59
2023-04-16T20:30:29.454Z,102126.78
2023-04-16T20:33:15.443Z,102120.50
2023-04-16T20:36:01.240Z,102128.16
2023-04-16T20:38:46.743Z,102124.47
2023-04-16T20:41:32.190Z,102126.91
2023-04-16T20:44:18.859Z,102128.34
2023-04-16T20:47:05.172Z,102134.38
2023-04-16T20:49:52.771Z,102138.63
2023-04-16T20:52:38.536Z,102148.88
2023-04-16T20:55:23.909Z,102143.50
2023-04-16T20:58:09.653Z,102138.13
2023-04-16T21:00:56.577Z,102137.28
2023-04-16T21:03:42.486Z,102142.41
2023-04-16T21:06:28.084Z,102131.69
2023-04-16T21:09:13.523Z,102133.22
2023-04-16T21:11:59.222Z,102137.34
2023-04-16T21:14:44.440Z,102138.88
2023-04-16T21:17:29.983Z,102136.13
2023-04-16T21:20:15.753Z,102140.28
2023-04-16T21:23:01.711Z,102143.72
2023-04-16T21:25:47.355Z,102141.09
2023-04-16T21:28:32.860Z,102143.59
2023-04-16T21:31:18.297Z,102150.47
2023-04-16T21:34:03.728Z,102142.41
2023-04-16T21:36:49.330Z,102144.72
2023-04-16T21:39:34.976Z,102147.03
2023-04-16T21:42:20.513Z,102141.53
2023-04-16T21:45:10.488Z,102149.16
2023-04-16T21:47:56.269Z,102149.00
2023-04-16T21:50:41.445Z,102146.97
2023-04-16T21:53:32.076Z,102147.69
2023-04-16T21:56:17.634Z,102148.34
2023-04-16T21:59:03.022Z,102157.88
2023-04-16T22:01:48.318Z,102163.91
2023-04-16T22:04:40.096Z,102164.84
2023-04-16T22:07:27.201Z,102163.91
2023-04-16T22:10:14.910Z,102167.22
2023-04-16T22:13:01.793Z,102172.53
2023-04-16T22:15:47.307Z,102169.22
2023-04-16T22:18:33.112Z,102168.28
2023-04-16T22:21:19.116Z,102172.47
2023-04-16T22:24:05.036Z,102168.09
2023-04-16T22:26:50.713Z,102173.03
2023-04-16T22:29:36.222Z,102167.63
2023-04-16T22:32:21.718Z,102169.41
2023-04-16T22:35:07.808Z,102170.91
2023-04-16T22:37:53.102Z,102166.34
2023-04-16T22:40:38.399Z,102166.19
2023-04-16T22:43:24.008Z,102173.97
2023-04-16T22:46:09.651Z,102168.53
2023-04-16T22:48:55.318Z,102174.47
2023-04-16T22:51:41.003Z,102165.81
2023-04-16T22:54:30.879Z,102175.06
2023-04-16T22:57:17.467Z,102174.41
2023-04-16T23:00:06.401Z,102170.75
2023-04-16T23:02:52.531Z,102171.56
2023-04-16T23:05:37.998Z,102167.03
2023-04-16T23:08:23.259Z,102166.03
2023-04-16T23:11:08.603Z,102178.19
2023-04-16T23:13:54.054Z,102177.28
2023-04-16T23:16:40.067Z,102178.00
2023-04-16T23:19:25.454Z,102182.84
2023-04-16T23:22:12.387Z,102179.78
2023-04-16T23:24:57.905Z,102176.19
2023-04-16T23:27:43.329Z,102173.28
2023-04-16T23:30:28.939Z,102174.34
2023-04-16T23:33:14.375Z,102173.53
2023-04-16T23:35:59.625Z,102183.81
2023-04-16T23:38:44.937Z,102191.34
2023-04-16T23:41:30.355Z,102192.81
2023-04-16T23:44:16.552Z,102192.53
2023-04-16T23:47:02.266Z,102199.69
2023-04-16T23:49:48.108Z,102197.22
2023-04-16T23:52:33.477Z,102196.91
2023-04-16T23:55:19.388Z,102204.69
2023-04-16T23:58:05.141Z,102200.09
